Participated 6 times
Between 1951 and 1956
Vincent Vitetta, France
Tour de France 2026 starts from Barcelona, Spain in

Stats and Facts from
Tour de France.

2026   2025   2024   2023  2022  2021  2020  2019   2018  2017   2016   2015  2014  2013   2012   2011  2010   2009   2008   2007   2006   2005   2004   2003   2002   2001   2000   1999   1998   1997  1996   1995   1994   1993   1992  1991   1990   1989   1988   1987   1986   1985   1984   1983  1982  1981   1980   1979  1978  1977   1976  1975  1974  1973   1972   1971   1970  1969   1968   1967   1966   1965  1964  1963   1962   1961   1960   1959   1958   1957  1956   1955   1954   1953   1952  1951  1950  1949   1948  1947  1939   1938   1937   1936   1935   1934   1933  1932   1931   1930  1929   1928   1927   1926  1925  1924  1923   1922   1921   1920   1919  1914   1913   1912   1911   1910  1909   1908   1907   1906  1905  1904   1903 

Tourstats
Sitemap

After stage 21 - 2025:
 16451 starters.
  5464 different riders.
  689 teams.
  2398 stages.
  470 restdays.
  466506.50 km.
  5925 abandoned riders.

Click map for 2012 route.
Facts from Tour de France 2012
  |   Stages.  |   Stage winners.  |   Days in jerseys.  |   Teams.  |   All riders.  |   All riders by age.  |   All riders from.  |  

  |   Rookies.  |   Withdrawls.  |   Average speed.  |   GC.  |   Polka  |   Green  |   White  |   Summits. (In tour)  |   Miscellaneous.  |  

Stage 14 on July 15th. 2012
Pick a stage:  Pro  1  2  3  4  5  6  7  8  9  10  11  12  13  14  15  16  17  18  19  20  

After stage 14:    Bradley Wiggins    Fredrik Kessiakoff    Peter Sagan    Tejay Van Garderen  
  LimouxFoix | Dist: 191.00km. | Winner: Luis León Sánchez

Podium
2  Col du Portel Thomas  Voecklerafter30.00 km.

1  Port de Lers Sérgio Paulinhoafter126.50 km.

1  Mur de Péguère Sandy Casarafter152.50 km.


Average speed for all riders in stage:  36,635 km./hr.

1
 Luis León Sánchez  Rabobank04h 50' 29"=39,451  km/h

2
 Peter Sagan  Liquigas-Cannondale04h 51' 16"+  00:00:47 =39,345  km/h

3
 Sandy Casar  FDJ – Big Mat04h 51' 16"+  00:00:47 =39,345  km/h

4  Philippe Gilbert  BMC04h 51' 16"+  00:00:47 =39,345  km/h

5  Gorka Izagirre  Euskaltel-Euskadi04h 51' 16"+  00:00:47 =39,345  km/h

6  Sérgio Paulinho  Saxo Bank-Tinkoff Bank04h 53' 20"+  00:02:51 =39,068  km/h

7  Sébastien Minard  AG2R La Mondiale04h 53' 20"+  00:02:51 =39,068  km/h

8  Martin Velits  Omega Pharma – Quick Step04h 54' 18"+  00:03:49 =38,940  km/h

9  Eduard Vorganov  Katusha04h 55' 20"+  00:04:51 =38,804  km/h

10  Steven Kruijswijk  Rabobank04h 55' 22"+  00:04:53 =38,799  km/h

11  Cyril Gautier  Europcar05h 05' 22"+  00:14:53 =37,529  km/h

12  Luis Angel Mate  Cofidis Le Credit En Ligne05h 08' 44"+  00:18:15 =37,119  km/h

13  Julien Simon  Saur-Sojasun05h 08' 44"+  00:18:15 =37,119  km/h

14  Mikaël Cherel  AG2R La Mondiale05h 08' 44"+  00:18:15 =37,119  km/h

15  Bradley Wiggins  Sky Procycling05h 08' 44"+  00:18:15 =37,119  km/h

16  Cadel Evans  BMC05h 08' 44"+  00:18:15 =37,119  km/h

17  Vincenzo Nibali  Liquigas-Cannondale05h 08' 44"+  00:18:15 =37,119  km/h

18  Kristjan Koren  Liquigas-Cannondale05h 08' 44"+  00:18:15 =37,119  km/h

19  Brice Feillu  Saur-Sojasun05h 08' 44"+  00:18:15 =37,119  km/h

20  Chris Froome  Sky Procycling05h 08' 44"+  00:18:15 =37,119  km/h

21  Johnny Hoogerland  Vacansoleil-DCM05h 08' 44"+  00:18:15 =37,119  km/h

22  Christian Knees  Sky Procycling05h 08' 44"+  00:18:15 =37,119  km/h

23  Matthieu Ladagnous  FDJ – Big Mat05h 08' 44"+  00:18:15 =37,119  km/h

24  Chris Anker Sørensen  Saxo Bank-Tinkoff Bank05h 08' 44"+  00:18:15 =37,119  km/h

25  Edvald Boasson Hagen  Sky Procycling05h 08' 44"+  00:18:15 =37,119  km/h

26  Davide Malacarne  Europcar05h 08' 44"+  00:18:15 =37,119  km/h

27  Haimar  Zubeldía  Radioshack–Nissan05h 08' 44"+  00:18:15 =37,119  km/h

28  Nicolas Roche  AG2R La Mondiale05h 08' 44"+  00:18:15 =37,119  km/h

29  Jurgen Van Den Broeck  Lotto-Belisol05h 08' 44"+  00:18:15 =37,119  km/h

30  Michael Rogers  Sky Procycling05h 08' 44"+  00:18:15 =37,119  km/h

31  Michael Schär  BMC05h 08' 44"+  00:18:15 =37,119  km/h

32  Richie Porte  Sky Procycling05h 08' 44"+  00:18:15 =37,119  km/h

33  Janez Brajkovič  Astana Pro Team05h 08' 44"+  00:18:15 =37,119  km/h

34  Francis De Greef  Lotto-Belisol05h 08' 44"+  00:18:15 =37,119  km/h

35  Maxime Monfort  Radioshack–Nissan05h 08' 44"+  00:18:15 =37,119  km/h

36  Pierre Rolland  Europcar05h 08' 44"+  00:18:15 =37,119  km/h

37  Maxime Bouet  AG2R La Mondiale05h 08' 44"+  00:18:15 =37,119  km/h

38  Rui Costa  Movistar05h 08' 44"+  00:18:15 =37,119  km/h

39  Jérôme Coppel  Saur-Sojasun05h 08' 44"+  00:18:15 =37,119  km/h

40  Amaël Moinard  BMC05h 08' 44"+  00:18:15 =37,119  km/h

41  Fränk Schleck  Radioshack–Nissan05h 08' 44"+  00:18:15 =37,119  km/h

42  Thibaut Pinot  FDJ – Big Mat05h 08' 44"+  00:18:15 =37,119  km/h

43  Manuel Quinziato  BMC05h 08' 44"+  00:18:15 =37,119  km/h

44  George Hincapie  BMC05h 08' 44"+  00:18:15 =37,119  km/h

45  Andriy Grivko  Astana Pro Team05h 08' 44"+  00:18:15 =37,119  km/h

46  Federico Canuti  Liquigas-Cannondale05h 08' 44"+  00:18:15 =37,119  km/h

47  Michele Scarponi  Lampre-ISD05h 08' 44"+  00:18:15 =37,119  km/h

48  Sylwester Szmyd  Liquigas-Cannondale05h 08' 44"+  00:18:15 =37,119  km/h

49  Fredrik Kessiakoff  Astana Pro Team05h 08' 44"+  00:18:15 =37,119  km/h

50  Tejay Van Garderen  BMC05h 08' 44"+  00:18:15 =37,119  km/h

51  Denis Menchov  Katusha05h 08' 44"+  00:18:15 =37,119  km/h

52  Yaroslav Popovych  Radioshack–Nissan05h 08' 44"+  00:18:15 =37,119  km/h

53  Adam Hansen  Lotto-Belisol05h 08' 44"+  00:18:15 =37,119  km/h

54  Christopher Horner  Radioshack–Nissan05h 08' 44"+  00:18:15 =37,119  km/h

55  Andréas  Klöden  Radioshack–Nissan05h 08' 44"+  00:18:15 =37,119  km/h

56  Marcus Burghardt  BMC05h 08' 44"+  00:18:15 =37,119  km/h

57  Dimitiri Fofonov  Astana Pro Team05h 08' 44"+  00:18:15 =37,119  km/h

58  Ivan Basso  Liquigas-Cannondale05h 08' 44"+  00:18:15 =37,119  km/h

59  Juan José Cobo  Movistar05h 08' 44"+  00:18:15 =37,119  km/h

60  Peter Velits  Omega Pharma – Quick Step05h 08' 44"+  00:18:15 =37,119  km/h

61  Alejandro Valverde  Movistar05h 08' 44"+  00:18:15 =37,119  km/h

62  Pieter Weening  Orica-GreenEDGE05h 08' 44"+  00:18:15 =37,119  km/h

63  Jelle Vanendert  Lotto-Belisol05h 08' 44"+  00:18:15 =37,119  km/h

64  Egoi Martínez  Euskaltel-Euskadi05h 08' 44"+  00:18:15 =37,119  km/h

65  Andrey Kashechkin  Astana Pro Team05h 08' 44"+  00:18:15 =37,119  km/h

66  Vladimir Karpets  Movistar05h 08' 44"+  00:18:15 =37,119  km/h

67  Daniel Oss  Liquigas-Cannondale05h 08' 44"+  00:18:15 =37,119  km/h

68  Levi Leipheimer  Omega Pharma – Quick Step05h 08' 44"+  00:18:15 =37,119  km/h

69  Thomas  Voeckler  Europcar05h 08' 56"+  00:18:27 =37,095  km/h

70  Jens Voigt  Radioshack–Nissan05h 11' 48"+  00:21:19 =36,754  km/h

71  Anthony Roux  FDJ – Big Mat05h 11' 48"+  00:21:19 =36,754  km/h

72  Arthur Vichot  FDJ – Big Mat05h 11' 48"+  00:21:19 =36,754  km/h

73  Ruben Perez  Euskaltel-Euskadi05h 11' 48"+  00:21:19 =36,754  km/h

74  Nicki Sørensen  Saxo Bank-Tinkoff Bank05h 11' 48"+  00:21:19 =36,754  km/h

75  Nicolas Edet  Cofidis Le Credit En Ligne05h 11' 48"+  00:21:19 =36,754  km/h

76  Dan Martin  Garmin-Sharp-Barracuda05h 11' 48"+  00:21:19 =36,754  km/h

77  Jean-Christophe Peraud  AG2R La Mondiale05h 11' 48"+  00:21:19 =36,754  km/h

78  Pierrick  Fédrigo  FDJ – Big Mat05h 11' 48"+  00:21:19 =36,754  km/h

79  Simone Stortoni  Lampre-ISD05h 11' 48"+  00:21:19 =36,754  km/h

80  Vladimir Gusev  Katusha05h 11' 48"+  00:21:19 =36,754  km/h

81  Giampaolo Caruso  Katusha05h 11' 48"+  00:21:19 =36,754  km/h

82  Samuel Dumoulin  Cofidis Le Credit En Ligne05h 14' 02"+  00:23:33 =36,493  km/h

83  Laurens Ten Dam  Rabobank05h 14' 02"+  00:23:33 =36,493  km/h

84  Jorge Azanza  Euskaltel-Euskadi05h 14' 02"+  00:23:33 =36,493  km/h

85  Stephen Cummings  BMC05h 16' 30"+  00:26:01 =36,209  km/h

86  Yury  Trofimov  Katusha05h 16' 30"+  00:26:01 =36,209  km/h

87  Guillaume Levarlet  Saur-Sojasun05h 16' 30"+  00:26:01 =36,209  km/h

88  Fabrice Jeandesboz  Saur-Sojasun05h 16' 30"+  00:26:01 =36,209  km/h

89  Kevin De Weert  Omega Pharma – Quick Step05h 16' 30"+  00:26:01 =36,209  km/h

90  Marco Marzano  Lampre-ISD05h 16' 30"+  00:26:01 =36,209  km/h

91  Luca Paolini  Katusha05h 16' 30"+  00:26:01 =36,209  km/h

92  Albert Timmer  Argos–Shimano05h 18' 47"+  00:28:18 =35,949  km/h

93  Jérôme Pineau  Omega Pharma – Quick Step05h 18' 47"+  00:28:18 =35,949  km/h

94  Roy Curvers  Argos–Shimano05h 18' 47"+  00:28:18 =35,949  km/h

95  Christophe Riblon  AG2R La Mondiale05h 18' 47"+  00:28:18 =35,949  km/h

96  Blel Kadri  AG2R La Mondiale05h 18' 47"+  00:28:18 =35,949  km/h

97  Sylvain Chavanel  Omega Pharma – Quick Step05h 18' 47"+  00:28:18 =35,949  km/h

98  Cédric Pineau  FDJ – Big Mat05h 18' 47"+  00:28:18 =35,949  km/h

99  Jérémy Roy  FDJ – Big Mat05h 18' 47"+  00:28:18 =35,949  km/h

100  Koen De Kort  Argos–Shimano05h 18' 47"+  00:28:18 =35,949  km/h

101  Marco Marcato  Vacansoleil-DCM05h 18' 47"+  00:28:18 =35,949  km/h

102  Borut Božič  Astana Pro Team05h 18' 47"+  00:28:18 =35,949  km/h

103  Bert Grabsch  Omega Pharma – Quick Step05h 18' 47"+  00:28:18 =35,949  km/h

104  Patrick Gretsch  Argos–Shimano05h 18' 47"+  00:28:18 =35,949  km/h

105  Romain Zingle  Cofidis Le Credit En Ligne05h 18' 47"+  00:28:18 =35,949  km/h

106  Sébastien Hinault  AG2R La Mondiale05h 18' 47"+  00:28:18 =35,949  km/h

107  Nick Nuyens  Saxo Bank-Tinkoff Bank05h 18' 47"+  00:28:18 =35,949  km/h

108  Dominik Nerz  Liquigas-Cannondale05h 18' 47"+  00:28:18 =35,949  km/h

109  Gregory Henderson  Lotto-Belisol05h 18' 47"+  00:28:18 =35,949  km/h

110  Simon Gerrans  Orica-GreenEDGE05h 18' 47"+  00:28:18 =35,949  km/h

111  Baden Cooke  Orica-GreenEDGE05h 18' 47"+  00:28:18 =35,949  km/h

112  Lars Bak  Lotto-Belisol05h 18' 47"+  00:28:18 =35,949  km/h

113  Anders Lund  Saxo Bank-Tinkoff Bank05h 18' 47"+  00:28:18 =35,949  km/h

114  Rafael Valls Ferri  Vacansoleil-DCM05h 18' 47"+  00:28:18 =35,949  km/h

115  Kenny van Hummel  Vacansoleil-DCM05h 18' 47"+  00:28:18 =35,949  km/h

116  Rubén Plaza  Movistar05h 18' 47"+  00:28:18 =35,949  km/h

117  Daryl Impey  Orica-GreenEDGE05h 18' 47"+  00:28:18 =35,949  km/h

118  Yauheni Hutarovich  FDJ – Big Mat05h 18' 47"+  00:28:18 =35,949  km/h

119  André Greipel  Lotto-Belisol05h 18' 47"+  00:28:18 =35,949  km/h

120  Jürgen Roelandts  Lotto-Belisol05h 18' 47"+  00:28:18 =35,949  km/h

121  Marcel Sieberg  Lotto-Belisol05h 18' 47"+  00:28:18 =35,949  km/h

122  Jimmy Engoulvent  Saur-Sojasun05h 18' 47"+  00:28:18 =35,949  km/h

123  Michael Mørkøv  Saxo Bank-Tinkoff Bank05h 18' 47"+  00:28:18 =35,949  km/h

124  Giovanni Bernaudeau  Europcar05h 18' 47"+  00:28:18 =35,949  km/h

125  Rein Taaramäe  Cofidis Le Credit En Ligne05h 18' 47"+  00:28:18 =35,949  km/h

126  Yukiya  Arashiro  Europcar05h 18' 47"+  00:28:18 =35,949  km/h

127  Alessandro Vanotti  Liquigas-Cannondale05h 18' 47"+  00:28:18 =35,949  km/h

128  Pablo Urtasun  Euskaltel-Euskadi05h 18' 47"+  00:28:18 =35,949  km/h

129  Julien Fouchard  Cofidis Le Credit En Ligne05h 18' 47"+  00:28:18 =35,949  km/h

130  Tyler Farrar  Garmin-Sharp-Barracuda05h 18' 47"+  00:28:18 =35,949  km/h

131  Cyril Lemoine  Saur-Sojasun05h 18' 47"+  00:28:18 =35,949  km/h

132  Juan José Haedo  Saxo Bank-Tinkoff Bank05h 18' 47"+  00:28:18 =35,949  km/h

133  Jan Ghyselinck  Cofidis Le Credit En Ligne05h 18' 47"+  00:28:18 =35,949  km/h

134  Vasil Kiryienka  Movistar05h 18' 47"+  00:28:18 =35,949  km/h

135  Christian Vandevelde  Garmin-Sharp-Barracuda05h 18' 47"+  00:28:18 =35,949  km/h

136  Danilo Hondo  Lampre-ISD05h 18' 47"+  00:28:18 =35,949  km/h

137  Jean-Marc Marino  Saur-Sojasun05h 18' 47"+  00:28:18 =35,949  km/h

138  Grega Bole  Lampre-ISD05h 18' 47"+  00:28:18 =35,949  km/h

139  Matthieu Sprick  Argos–Shimano05h 18' 47"+  00:28:18 =35,949  km/h

140  Yann Huguet  Argos–Shimano05h 18' 47"+  00:28:18 =35,949  km/h

141  Jonathan Cantwell  Saxo Bank-Tinkoff Bank05h 18' 47"+  00:28:18 =35,949  km/h

142  Matthew Goss  Orica-GreenEDGE05h 18' 47"+  00:28:18 =35,949  km/h

143  David Millar  Garmin-Sharp-Barracuda05h 18' 47"+  00:28:18 =35,949  km/h

144  Stuart O'Grady  Orica-GreenEDGE05h 18' 47"+  00:28:18 =35,949  km/h

145  Dries Devenyns  Omega Pharma – Quick Step05h 18' 47"+  00:28:18 =35,949  km/h

146  Johan Vansummeren  Garmin-Sharp-Barracuda05h 18' 47"+  00:28:18 =35,949  km/h

147  David Zabriskie  Garmin-Sharp-Barracuda05h 18' 47"+  00:28:18 =35,949  km/h

148  Mark Cavendish  Sky Procycling05h 18' 47"+  00:28:18 =35,949  km/h

149  Maxim Iglinskiy  Astana Pro Team05h 18' 47"+  00:28:18 =35,949  km/h

150  Joan Horrach  Katusha05h 18' 47"+  00:28:18 =35,949  km/h

151  Alexandre Vinokourov  Astana Pro Team05h 18' 47"+  00:28:18 =35,949  km/h

152  Aliaksandr Kuchynski  Katusha05h 18' 47"+  00:28:18 =35,949  km/h

153  Karsten Kroon  Saxo Bank-Tinkoff Bank05h 18' 47"+  00:28:18 =35,949  km/h

154  Michael Albasini  Orica-GreenEDGE05h 18' 47"+  00:28:18 =35,949  km/h

155  Bram Tankink  Rabobank05h 18' 47"+  00:28:18 =35,949  km/h

156  Sebastian Langeveld  Orica-GreenEDGE05h 18' 47"+  00:28:18 =35,949  km/h

157  Brett Lancaster  Orica-GreenEDGE05h 18' 47"+  00:28:18 =35,949  km/h

158  Bernhard Eisel  Sky Procycling05h 18' 47"+  00:28:18 =35,949  km/h

159  Yohann Gène  Europcar05h 18' 59"+  00:28:30 =35,927  km/h

160  Vincent Jérôme  Europcar05h 18' 59"+  00:28:30 =35,927  km/h

161  Kris Boeckmans  Vacansoleil-DCM05h 18' 59"+  00:28:30 =35,927  km/h

162  Christophe Kern  Europcar05h 22' 22"+  00:31:53 =35,550  km/h


Withdrawls: 1
 RiderTeamReason
188   Robert Kišerlovski Astana Pro TeamDid not finish
Todays birthdays.

1884 • Vincenzo Borgarello
1889 • Emile Bonnefoi
1889 • Auguste Denizot
1890 • Maurice Petit
1904 • Pierino Ferioli
1905 • Vincent Carrara
1910 • Antoon Van Schendel
1925 • Georges Meunier
1945 • Gérard Besnard
1950 • Wim Kelleners
1960 • Ivan Ivanov
1960 • Pierre-Henri Menthéour
1962 • Giovanni Bottoia
1964 • Flavio Giupponi
1974 • Benoit Salmon
1977 • Iñigo Landaluze
1977 • Svein Tuft
1979 • Rubens Bertogliati
1985 • Matthew Busche

 

Optimized for Chrome - Edge
and Opera browsers.